Aérodrome :
LOGIN :

S'inscrire | Disclaimer

   EN    FR    IT 

 










Légende :    VFR   VFR Marginal   IFR   IFR Intensif   IFR Très Intensif
Visi : 
Plafond : 
>= 8 km
>= 3000ft
5 à 8 km
1000 à 3000 ft
1500m à 5 km
500 à 1000 ft
800 à 1500m
200 à 500 ft
< 800m
< 200 ft
Symboles :   Orages  Brouillard  Fortes neiges  Fortes précipitations  Vent > 20 kt
SIGMETs :   Divers  Orages  Givrage  Turbulence  Onde Orograph.  Cendres Volcan.







- Altitude de l'aérodrome : 1535 ft
- Code IATA : OUD


GMFO - Ouja Angads

DERNIER METAR :
  • 241900Z 32008KT 9999 FEW026 26/13 Q1020 NOSIG

METARs EXPIRÉS :
  • 241800Z 32009KT 9999 FEW026 28/14 Q1020 NOSIG
  • 241700Z 34011KT 9999 FEW026 32/10 Q1019 NOSIG

TAF TAF GMFO
Valide du 24 à 18h jusqu'au 26 à 00h UTC


241700Z 2418/2524 33013KT CAVOK
BECMG 2419/2421 22005KT
BECMG 2509/2511 02015KT
Pas de NOTAMs connus pour ce terrain.
1 SIGMET publié pour la FIR Casablanca (GMMM) :
 
Orages noyés dans la masse
GMMM SIGMET A4 VALID 241800/242200 GMMC
GMMM CASABLANCA FIR EMBD TS OBS E OF LINE N3034 W00448 - N3240 W006 46 - N3122 W00954 - N2740 W00946 TOP FL360 MOV NW NC=



MET'MAP, la Météo Aéronautique d'un coup d'oeil ! - Copyright ORBIFLY Décembre 2007 - Disclaimer

ORBIFLY MET'MAP TEAM :

Programmation & Développement : Alexandra Zaïnal
Conception & Développement : Baudouin d'Aumeries
Co-Programmation & Développement : Marc-Olivier Méhu
Soutien technique & logistique : Manuel Goepfert

Contact : metmap@orbifly.com




SOURCES & CREDITS :

   NOAA